createdAt,value
2023-01-04T00:02:19.556Z,5.84
2023-01-04T00:04:47.772Z,5.82
2023-01-04T00:07:16.067Z,5.82
2023-01-04T00:09:44.384Z,5.73
2023-01-04T00:12:12.539Z,5.91
2023-01-04T00:14:40.648Z,6.05
2023-01-04T00:17:10.221Z,6.06
2023-01-04T00:19:38.382Z,6.04
2023-01-04T00:22:06.648Z,5.94
2023-01-04T00:24:34.761Z,5.82
2023-01-04T00:27:02.951Z,5.71
2023-01-04T00:29:31.203Z,5.74
2023-01-04T00:31:59.336Z,5.64
2023-01-04T00:34:28.982Z,5.77
2023-01-04T00:36:57.175Z,5.80
2023-01-04T00:39:25.904Z,5.66
2023-01-04T00:42:05.247Z,5.75
2023-01-04T00:44:34.628Z,5.74
2023-01-04T00:47:04.884Z,5.54
2023-01-04T00:49:34.465Z,5.09
2023-01-04T00:52:02.609Z,5.78
2023-01-04T00:54:30.770Z,5.65
2023-01-04T00:56:59.611Z,5.78
2023-01-04T00:59:27.827Z,5.83
2023-01-04T01:01:56.055Z,5.83
2023-01-04T01:04:25.545Z,5.85
2023-01-04T01:06:55.328Z,5.91
2023-01-04T01:09:23.948Z,6.06
2023-01-04T01:11:53.049Z,5.91
2023-01-04T01:14:24.160Z,5.85
2023-01-04T01:16:56.414Z,5.81
2023-01-04T01:19:25.360Z,5.71
2023-01-04T01:21:56.531Z,5.80
2023-01-04T01:24:24.756Z,5.71
2023-01-04T01:26:52.886Z,5.83
2023-01-04T01:29:21.125Z,5.51
2023-01-04T01:31:49.357Z,5.85
2023-01-04T01:34:17.616Z,5.87
2023-01-04T01:36:45.990Z,5.87
2023-01-04T01:39:16.011Z,5.85
2023-01-04T01:41:44.297Z,5.93
2023-01-04T01:44:45.767Z,5.97
2023-01-04T01:47:16.754Z,5.81
2023-01-04T01:49:47.955Z,5.87
2023-01-04T01:52:19.456Z,5.82
2023-01-04T01:54:53.409Z,4.72
2023-01-04T01:57:26.476Z,5.84
2023-01-04T01:59:57.668Z,5.86
2023-01-04T02:02:26.062Z,5.91
2023-01-04T02:04:56.002Z,5.90
2023-01-04T02:07:27.836Z,5.85
2023-01-04T02:09:57.927Z,5.81
2023-01-04T02:12:27.091Z,5.93
2023-01-04T02:14:55.344Z,5.93
2023-01-04T02:17:32.559Z,5.94
2023-01-04T02:20:17.113Z,5.84
2023-01-04T02:23:30.907Z,5.82
2023-01-04T02:26:44.465Z,5.87
2023-01-04T02:29:53.207Z,5.75
2023-01-04T02:32:36.366Z,5.73
2023-01-04T02:35:16.192Z,5.87
2023-01-04T02:37:56.057Z,5.94
2023-01-04T02:40:31.185Z,5.37
2023-01-04T02:43:22.983Z,5.84
2023-01-04T02:46:00.046Z,5.80
2023-01-04T02:48:54.051Z,5.57
2023-01-04T02:51:29.532Z,5.88
2023-01-04T02:53:59.564Z,5.85
2023-01-04T02:56:37.672Z,3.50
2023-01-04T02:59:20.641Z,5.83
2023-01-04T03:02:16.146Z,5.83
2023-01-04T03:05:13.159Z,5.85
2023-01-04T03:07:49.326Z,5.84
2023-01-04T03:10:24.594Z,5.87
2023-01-04T03:13:06.723Z,5.85
2023-01-04T03:15:38.482Z,5.83
2023-01-04T03:18:13.284Z,5.84
2023-01-04T03:20:44.597Z,5.78
2023-01-04T03:23:34.626Z,5.89
2023-01-04T03:26:24.573Z,5.92
2023-01-04T03:29:12.304Z,6.01
2023-01-04T03:32:02.979Z,5.99
2023-01-04T03:34:48.515Z,5.95
2023-01-04T03:37:22.112Z,5.91
2023-01-04T03:40:34.180Z,5.86
2023-01-04T03:43:26.650Z,5.85
2023-01-04T03:46:17.087Z,5.85
2023-01-04T03:48:52.116Z,5.90
2023-01-04T03:51:26.753Z,5.76
2023-01-04T03:54:01.211Z,5.67
2023-01-04T03:56:30.911Z,5.86
2023-01-04T03:58:59.749Z,5.86
2023-01-04T04:01:29.278Z,5.86
2023-01-04T04:04:15.042Z,5.92
2023-01-04T04:07:00.626Z,5.89
2023-01-04T04:09:30.190Z,5.89
2023-01-04T04:11:58.463Z,5.63
2023-01-04T04:14:26.950Z,5.88
2023-01-04T04:16:55.239Z,6.02
2023-01-04T04:19:23.437Z,5.88
2023-01-04T04:21:51.659Z,5.76
2023-01-04T04:24:21.934Z,5.83
2023-01-04T04:26:51.818Z,5.81
2023-01-04T04:29:19.961Z,5.80
2023-01-04T04:31:48.636Z,5.74
2023-01-04T04:34:16.849Z,5.77
2023-01-04T04:36:44.999Z,5.84
2023-01-04T04:39:13.237Z,5.85
2023-01-04T04:41:41.711Z,5.33
2023-01-04T04:44:13.962Z,5.72
2023-01-04T04:46:42.809Z,5.84
2023-01-04T04:49:11.978Z,5.91
2023-01-04T04:51:40.199Z,5.33
2023-01-04T04:54:09.081Z,6.01
2023-01-04T04:56:38.970Z,5.91
2023-01-04T04:59:07.373Z,5.90
2023-01-04T05:01:37.143Z,5.74
2023-01-04T05:04:05.839Z,5.82
2023-01-04T05:06:34.457Z,5.58
2023-01-04T05:09:02.623Z,5.81
2023-01-04T05:11:44.514Z,5.82
2023-01-04T05:14:12.667Z,5.84
2023-01-04T05:16:42.346Z,5.88
2023-01-04T05:19:10.951Z,5.82
2023-01-04T05:21:39.275Z,5.96
2023-01-04T05:24:07.808Z,5.75
2023-01-04T05:26:36.044Z,5.82
2023-01-04T05:29:04.367Z,5.58
2023-01-04T05:31:31.526Z,5.81
2023-01-04T05:34:01.145Z,5.83
2023-01-04T05:36:29.245Z,5.82
2023-01-04T05:38:57.397Z,5.81
2023-01-04T05:41:42.617Z,5.26
2023-01-04T05:44:10.776Z,5.75
2023-01-04T05:46:38.930Z,5.86
2023-01-04T05:49:08.508Z,5.87
2023-01-04T05:51:36.604Z,5.87
2023-01-04T05:54:04.791Z,5.90
2023-01-04T05:56:33.007Z,5.82
2023-01-04T05:59:01.174Z,5.68
2023-01-04T06:01:29.353Z,5.93
2023-01-04T06:03:58.097Z,5.93
2023-01-04T06:06:27.757Z,5.95
2023-01-04T06:08:55.915Z,5.95
2023-01-04T06:11:27.559Z,5.93
2023-01-04T06:13:56.248Z,5.95
2023-01-04T06:19:09.895Z,5.92
2023-01-04T06:21:39.551Z,5.50
2023-01-04T06:24:08.240Z,5.91
2023-01-04T06:26:36.354Z,5.91
2023-01-04T06:29:04.642Z,5.91
2023-01-04T06:31:33.787Z,5.83
2023-01-04T06:34:02.307Z,5.92
2023-01-04T06:36:30.951Z,5.95
2023-01-04T06:39:01.138Z,5.98
2023-01-04T06:41:29.267Z,5.85
2023-01-04T06:43:57.447Z,6.00
2023-01-04T06:46:25.723Z,6.09
2023-01-04T06:48:54.170Z,6.01
2023-01-04T06:51:22.917Z,6.04
2023-01-04T06:53:51.601Z,6.08
2023-01-04T06:56:21.712Z,6.06
2023-01-04T06:58:49.885Z,5.91
2023-01-04T07:01:18.718Z,6.05
2023-01-04T07:03:47.093Z,6.04
2023-01-04T07:06:15.346Z,5.96
2023-01-04T07:08:43.514Z,6.04
2023-01-04T07:11:11.666Z,6.03
2023-01-04T07:13:41.246Z,5.98
2023-01-04T07:16:09.451Z,5.99
2023-01-04T07:18:38.201Z,5.95
2023-01-04T07:21:06.758Z,5.86
2023-01-04T07:23:35.741Z,5.97
2023-01-04T07:26:04.303Z,6.00
2023-01-04T07:28:50.152Z,6.01
2023-01-04T07:31:19.724Z,5.99
2023-01-04T07:33:51.111Z,6.03
2023-01-04T07:36:19.347Z,6.05
2023-01-04T07:38:47.477Z,5.80
2023-01-04T07:41:15.667Z,5.97
2023-01-04T07:43:43.857Z,6.13
2023-01-04T07:46:12.040Z,6.05
2023-01-04T07:48:41.755Z,6.05
2023-01-04T07:51:09.946Z,6.11
2023-01-04T07:53:38.059Z,5.97
2023-01-04T07:56:06.874Z,5.88
2023-01-04T07:58:35.630Z,5.84
2023-01-04T08:01:11.321Z,5.50
2023-01-04T08:03:41.396Z,5.89
2023-01-04T08:06:12.354Z,5.86
2023-01-04T08:08:41.017Z,5.91
2023-01-04T08:11:11.636Z,5.93
2023-01-04T08:13:39.820Z,5.39
2023-01-04T08:16:08.507Z,5.79
2023-01-04T08:18:36.680Z,5.76
2023-01-04T08:21:08.367Z,5.75
2023-01-04T08:23:37.768Z,4.75
2023-01-04T08:26:07.446Z,5.82
2023-01-04T08:28:36.253Z,5.78
2023-01-04T08:31:07.581Z,5.75
2023-01-04T08:33:36.696Z,5.76
2023-01-04T08:36:11.099Z,5.73
2023-01-04T08:41:55.956Z,5.77
2023-01-04T08:44:16.004Z,5.75
2023-01-04T08:46:44.298Z,4.87
2023-01-04T08:49:12.793Z,5.89
2023-01-04T08:51:42.897Z,5.64
2023-01-04T08:54:12.039Z,6.14
2023-01-04T08:56:40.471Z,6.33
2023-01-04T08:59:09.318Z,6.21
2023-01-04T09:01:37.772Z,6.48
2023-01-04T09:04:06.304Z,6.59
2023-01-04T09:06:34.621Z,6.33
2023-01-04T09:09:04.383Z,6.75
2023-01-04T09:11:32.496Z,6.90
2023-01-04T09:14:08.050Z,7.02
2023-01-04T09:16:38.638Z,7.13
2023-01-04T09:19:08.288Z,7.22
2023-01-04T09:21:36.815Z,7.33
2023-01-04T09:24:06.849Z,7.54
2023-01-04T09:26:35.072Z,7.61
2023-01-04T09:29:04.044Z,7.63
2023-01-04T09:31:32.274Z,7.53
2023-01-04T09:34:13.981Z,7.84
2023-01-04T09:36:43.228Z,7.94
2023-01-04T09:39:21.051Z,8.09
2023-01-04T09:41:57.236Z,8.09
2023-01-04T09:45:12.166Z,8.15
2023-01-04T09:47:31.734Z,8.30
2023-01-04T09:50:05.060Z,8.33
2023-01-04T09:52:44.555Z,8.41
2023-01-04T09:55:39.361Z,7.57
2023-01-04T09:58:27.127Z,8.52
2023-01-04T10:01:03.177Z,8.69
2023-01-04T10:03:34.495Z,8.61
2023-01-04T10:06:04.020Z,8.41
2023-01-04T10:08:32.639Z,8.78
2023-01-04T10:11:15.590Z,8.90
2023-01-04T10:13:58.995Z,8.48
2023-01-04T10:17:12.081Z,8.61
2023-01-04T10:21:14.639Z,9.05
2023-01-04T10:22:46.545Z,8.95
2023-01-04T10:25:30.887Z,9.30
2023-01-04T10:28:23.368Z,9.46
2023-01-04T10:31:00.579Z,9.59
2023-01-04T10:33:50.853Z,9.70
2023-01-04T10:36:21.205Z,9.81
2023-01-04T10:38:58.326Z,9.87
2023-01-04T10:41:29.828Z,9.91
2023-01-04T10:44:14.185Z,9.98
2023-01-04T10:46:50.257Z,10.08
2023-01-04T10:49:25.045Z,10.13
2023-01-04T10:51:58.486Z,9.63
2023-01-04T10:54:32.508Z,10.38
2023-01-04T10:57:07.096Z,10.44
2023-01-04T10:59:43.482Z,10.49
2023-01-04T11:02:20.721Z,10.53
2023-01-04T11:04:57.869Z,10.31
2023-01-04T11:07:29.952Z,10.82
2023-01-04T11:10:04.947Z,10.99
2023-01-04T11:12:33.290Z,10.52
2023-01-04T11:15:03.168Z,10.86
2023-01-04T11:17:33.416Z,10.98
2023-01-04T11:20:01.768Z,10.89
2023-01-04T11:22:36.088Z,10.96
2023-01-04T11:25:34.329Z,10.58
2023-01-04T11:28:02.831Z,11.32
2023-01-04T11:30:41.332Z,11.35
2023-01-04T11:33:17.263Z,11.21
2023-01-04T11:35:48.449Z,11.62
2023-01-04T11:38:18.762Z,11.52
2023-01-04T11:40:59.139Z,11.75
2023-01-04T11:43:29.095Z,11.00
2023-01-04T11:46:01.903Z,11.77
2023-01-04T11:48:45.105Z,11.88
2023-01-04T11:51:34.173Z,11.91
2023-01-04T11:54:05.092Z,12.09
2023-01-04T11:56:34.184Z,12.14
2023-01-04T11:59:20.669Z,12.24
2023-01-04T12:02:42.072Z,12.26
2023-01-04T12:08:07.931Z,12.73
2023-01-04T12:10:36.217Z,12.78
2023-01-04T12:13:04.868Z,12.83
2023-01-04T12:15:41.275Z,12.90
2023-01-04T12:18:14.254Z,13.01
2023-01-04T12:20:42.475Z,12.92
2023-01-04T12:23:12.755Z,13.12
2023-01-04T12:25:43.907Z,13.19
2023-01-04T12:28:30.869Z,13.37
2023-01-04T12:31:30.156Z,13.44
2023-01-04T12:34:01.839Z,13.30
2023-01-04T12:37:04.967Z,13.34
2023-01-04T12:39:43.953Z,13.32
2023-01-04T12:42:17.784Z,13.19
2023-01-04T12:45:16.989Z,13.12
2023-01-04T12:48:04.349Z,13.09
2023-01-04T12:50:39.742Z,13.01
2023-01-04T12:53:31.088Z,13.33
2023-01-04T12:55:59.890Z,13.56
2023-01-04T12:59:24.712Z,13.38
2023-01-04T13:02:17.360Z,13.90
2023-01-04T13:04:45.778Z,14.03
2023-01-04T13:07:21.344Z,14.23
2023-01-04T13:09:59.155Z,14.80
2023-01-04T13:12:53.849Z,15.87
2023-01-04T13:15:26.256Z,16.80
2023-01-04T13:17:54.736Z,17.12
2023-01-04T13:20:25.901Z,17.39
2023-01-04T13:22:58.126Z,17.10
2023-01-04T13:25:26.606Z,17.13
2023-01-04T13:28:00.559Z,17.83
2023-01-04T13:30:34.491Z,19.29
2023-01-04T13:33:27.943Z,19.50
2023-01-04T13:36:04.461Z,19.63
2023-01-04T13:38:35.787Z,20.19
2023-01-04T13:41:17.867Z,20.40
2023-01-04T13:44:04.006Z,20.20
2023-01-04T13:46:32.469Z,19.63
2023-01-04T13:49:03.388Z,19.32
2023-01-04T13:51:37.690Z,19.89
2023-01-04T13:54:18.935Z,19.73
2023-01-04T13:56:53.517Z,18.86
2023-01-04T13:59:23.924Z,16.96
2023-01-04T14:01:53.452Z,16.14
2023-01-04T14:04:26.854Z,14.76
2023-01-04T14:06:58.738Z,14.16
2023-01-04T14:09:32.875Z,13.33
2023-01-04T14:12:09.629Z,12.97
2023-01-04T14:14:41.305Z,12.64
2023-01-04T14:17:19.789Z,12.40
2023-01-04T14:19:50.992Z,12.05
2023-01-04T14:22:42.822Z,11.83
2023-01-04T14:25:45.092Z,11.60
2023-01-04T14:28:32.888Z,11.30
2023-01-04T14:31:36.090Z,11.01
2023-01-04T14:34:15.892Z,10.93
2023-01-04T14:36:44.998Z,10.87
2023-01-04T14:39:35.673Z,10.73
2023-01-04T14:42:06.283Z,10.45
2023-01-04T14:44:36.518Z,10.24
2023-01-04T14:47:07.968Z,10.17
2023-01-04T14:49:36.136Z,9.86
2023-01-04T14:52:10.702Z,9.66
2023-01-04T14:54:39.865Z,9.68
2023-01-04T14:57:11.196Z,9.16
2023-01-04T14:59:39.304Z,9.47
2023-01-04T15:02:07.741Z,9.27
2023-01-04T15:04:36.025Z,9.25
2023-01-04T15:07:04.329Z,9.33
2023-01-04T15:09:32.840Z,9.21
2023-01-04T15:12:01.005Z,9.07
2023-01-04T15:14:30.581Z,8.90
2023-01-04T15:16:58.771Z,7.89
2023-01-04T15:19:28.487Z,8.81
2023-01-04T15:21:58.306Z,8.55
2023-01-04T15:24:26.386Z,8.34
2023-01-04T15:26:54.515Z,7.94
2023-01-04T15:29:22.745Z,8.20
2023-01-04T15:31:52.339Z,8.16
2023-01-04T15:34:22.956Z,7.99
2023-01-04T15:36:52.418Z,8.07
2023-01-04T15:39:20.607Z,8.16
2023-01-04T15:42:05.978Z,8.10
2023-01-04T15:44:34.188Z,8.11
2023-01-04T15:47:03.900Z,8.00
2023-01-04T15:49:32.164Z,7.85
2023-01-04T15:52:00.402Z,7.62
2023-01-04T15:54:29.282Z,7.64
2023-01-04T15:56:57.651Z,6.47
2023-01-04T15:59:26.014Z,7.57
2023-01-04T16:01:54.391Z,7.57
2023-01-04T16:04:24.109Z,7.41
2023-01-04T16:06:52.268Z,7.48
2023-01-04T16:09:20.540Z,7.50
2023-01-04T16:12:05.983Z,7.53
2023-01-04T16:14:34.164Z,7.23
2023-01-04T16:17:02.329Z,7.27
2023-01-04T16:19:34.312Z,7.49
2023-01-04T16:22:02.657Z,7.47
2023-01-04T16:25:09.153Z,7.45
2023-01-04T16:27:19.069Z,7.42
2023-01-04T16:29:47.274Z,7.17
2023-01-04T16:32:15.445Z,7.34
2023-01-04T16:34:45.210Z,7.36
2023-01-04T16:37:13.434Z,7.38
2023-01-04T16:42:30.002Z,7.38
2023-01-04T16:44:58.195Z,7.40
2023-01-04T16:47:26.446Z,7.42
2023-01-04T16:49:56.072Z,7.38
2023-01-04T16:52:27.341Z,7.25
2023-01-04T16:54:55.499Z,7.33
2023-01-04T16:57:24.112Z,7.01
2023-01-04T16:59:52.416Z,7.33
2023-01-04T17:02:20.705Z,7.25
2023-01-04T17:04:55.322Z,7.39
2023-01-04T17:07:27.674Z,7.07
2023-01-04T17:09:55.874Z,7.49
2023-01-04T17:18:01.418Z,7.13
2023-01-04T17:20:29.672Z,7.24
2023-01-04T17:22:59.318Z,7.23
2023-01-04T17:25:27.608Z,7.23
2023-01-04T17:27:55.914Z,7.27
2023-01-04T17:30:24.116Z,7.23
2023-01-04T17:32:52.460Z,6.62
2023-01-04T17:35:20.633Z,7.13
2023-01-04T17:37:48.812Z,7.27
2023-01-04T17:40:22.864Z,7.29
2023-01-04T17:42:51.889Z,7.17
2023-01-04T17:45:20.196Z,7.27
2023-01-04T17:47:48.860Z,6.64
2023-01-04T17:50:18.288Z,7.29
2023-01-04T17:52:47.625Z,6.34
2023-01-04T17:55:18.026Z,7.35
2023-01-04T17:57:46.560Z,7.40
2023-01-04T18:00:16.168Z,7.28
2023-01-04T18:02:44.791Z,6.02
2023-01-04T18:05:13.068Z,6.88
2023-01-04T18:07:41.244Z,7.13
2023-01-04T18:10:20.574Z,7.16
2023-01-04T18:12:56.483Z,7.15
2023-01-04T18:15:26.370Z,7.13
2023-01-04T18:17:54.554Z,7.24
2023-01-04T18:20:25.593Z,7.21
2023-01-04T18:22:53.845Z,7.28
2023-01-04T18:25:22.053Z,7.28
2023-01-04T18:27:50.423Z,7.18
2023-01-04T18:30:20.231Z,7.15
2023-01-04T18:32:48.532Z,7.12
2023-01-04T18:35:16.860Z,7.00
2023-01-04T18:37:46.310Z,7.08
2023-01-04T18:40:14.587Z,7.06
2023-01-04T18:42:47.350Z,6.85
2023-01-04T18:45:15.918Z,6.87
2023-01-04T18:47:47.671Z,7.17
2023-01-04T18:50:16.533Z,6.94
2023-01-04T18:52:44.938Z,7.21
2023-01-04T18:55:13.405Z,7.10
2023-01-04T18:57:42.071Z,7.19
2023-01-04T19:00:11.803Z,7.11
2023-01-04T19:02:40.256Z,7.20
2023-01-04T19:05:11.398Z,7.25
2023-01-04T19:07:40.728Z,5.78
2023-01-04T19:10:09.936Z,7.19
2023-01-04T19:12:39.049Z,7.04
2023-01-04T19:15:09.295Z,6.93
2023-01-04T19:17:37.714Z,7.08
2023-01-04T19:20:09.696Z,6.64
2023-01-04T19:22:37.929Z,7.03
2023-01-04T19:25:07.436Z,6.29
2023-01-04T19:27:35.716Z,7.02
2023-01-04T19:30:03.951Z,6.85
2023-01-04T19:32:33.810Z,7.03
2023-01-04T19:35:02.416Z,7.01
2023-01-04T19:37:32.005Z,7.02
2023-01-04T19:40:00.229Z,6.22
2023-01-04T19:42:28.453Z,6.89
2023-01-04T19:44:56.659Z,6.98
2023-01-04T19:47:24.932Z,6.87
2023-01-04T19:49:53.080Z,7.07
2023-01-04T19:52:21.299Z,6.91
2023-01-04T19:54:50.923Z,6.99
2023-01-04T19:57:19.224Z,6.61
2023-01-04T19:59:47.416Z,6.96
2023-01-04T20:02:15.786Z,6.94
2023-01-04T20:04:44.441Z,7.07
2023-01-04T20:07:12.696Z,7.00
2023-01-04T20:09:40.934Z,6.71
2023-01-04T20:12:10.623Z,6.85
2023-01-04T20:14:39.471Z,6.25
2023-01-04T20:17:08.030Z,6.61
2023-01-04T20:19:36.362Z,6.84
2023-01-04T20:22:04.593Z,6.75
2023-01-04T20:24:33.138Z,6.71
2023-01-04T20:27:01.412Z,6.57
2023-01-04T20:29:31.051Z,6.71
2023-01-04T20:32:00.823Z,6.78
2023-01-04T20:34:29.248Z,6.75
2023-01-04T20:36:57.449Z,6.58
2023-01-04T20:39:25.837Z,6.72
2023-01-04T20:42:11.497Z,6.56
2023-01-04T20:44:41.163Z,6.66
2023-01-04T20:47:09.341Z,6.58
2023-01-04T20:49:37.582Z,6.60
2023-01-04T20:52:06.173Z,6.59
2023-01-04T20:54:34.529Z,6.56
2023-01-04T20:57:02.772Z,6.30
2023-01-04T20:59:31.090Z,6.59
2023-01-04T21:02:03.443Z,6.57
2023-01-04T21:04:32.334Z,6.54
2023-01-04T21:07:00.538Z,6.45
2023-01-04T21:09:29.043Z,6.42
2023-01-04T21:12:00.653Z,6.52
2023-01-04T21:14:33.654Z,6.37
2023-01-04T21:17:03.368Z,6.38
2023-01-04T21:19:31.652Z,6.26
2023-01-04T21:21:59.855Z,6.35
2023-01-04T21:24:28.066Z,6.01
2023-01-04T21:26:56.276Z,6.32
2023-01-04T21:29:25.575Z,6.43
2023-01-04T21:31:53.818Z,6.34
2023-01-04T21:34:24.453Z,5.93
2023-01-04T21:36:52.724Z,6.02
2023-01-04T21:39:21.094Z,5.27
2023-01-04T21:41:51.360Z,6.21
2023-01-04T21:44:19.563Z,5.99
2023-01-04T21:46:47.892Z,6.17
2023-01-04T21:49:16.234Z,6.17
2023-01-04T21:51:45.877Z,5.72
2023-01-04T21:54:14.106Z,6.14
2023-01-04T21:56:42.288Z,6.16
2023-01-04T21:59:10.524Z,6.13
2023-01-04T22:01:38.809Z,6.03
2023-01-04T22:04:07.657Z,5.80
2023-01-04T22:06:38.783Z,6.15
2023-01-04T22:09:08.520Z,6.06
2023-01-04T22:11:37.020Z,6.14
2023-01-04T22:14:05.340Z,6.11
2023-01-04T22:16:33.864Z,6.00
2023-01-04T22:19:02.098Z,5.99
2023-01-04T22:21:30.925Z,6.03
2023-01-04T22:23:59.286Z,6.18
2023-01-04T22:26:28.964Z,5.92
2023-01-04T22:28:57.180Z,5.94
2023-01-04T22:31:25.467Z,5.88
2023-01-04T22:33:53.762Z,5.98
2023-01-04T22:36:23.668Z,5.86
2023-01-04T22:38:52.732Z,4.97
2023-01-04T22:41:22.528Z,5.90
2023-01-04T22:43:57.734Z,5.86
2023-01-04T22:46:27.832Z,5.76
2023-01-04T22:48:56.769Z,5.63
2023-01-04T22:51:27.645Z,5.97
2023-01-04T22:53:56.507Z,5.93
2023-01-04T22:56:26.219Z,5.93
2023-01-04T22:58:58.010Z,5.91
2023-01-04T23:01:27.856Z,5.95
2023-01-04T23:03:57.223Z,5.83
2023-01-04T23:06:26.241Z,5.42
2023-01-04T23:08:58.385Z,5.89
2023-01-04T23:11:27.858Z,5.22
2023-01-04T23:13:58.259Z,5.77
2023-01-04T23:16:32.288Z,5.62
2023-01-04T23:19:01.766Z,5.62
2023-01-04T23:21:30.188Z,5.63
2023-01-04T23:23:58.915Z,5.34
2023-01-04T23:26:28.891Z,5.66
2023-01-04T23:28:59.269Z,5.44
2023-01-04T23:31:30.818Z,5.66
2023-01-04T23:34:00.790Z,5.71
2023-01-04T23:36:32.417Z,5.60
2023-01-04T23:39:02.163Z,5.41
2023-01-04T23:41:46.184Z,5.61
2023-01-04T23:46:53.398Z,5.16
2023-01-04T23:49:21.581Z,5.55
2023-01-04T23:51:49.965Z,5.37
2023-01-04T23:54:18.251Z,5.64
2023-01-04T23:56:46.454Z,5.59
2023-01-04T23:59:14.777Z,5.55
